Time;durP1;ratioP1;P1;durP2;ratioP2;P2;SDS_P1;SDS_P2;PMS_P1;PMS_P2;Temp;Humidity;BMP_temperature;BMP_pressure;BME280_temperature;BME280_humidity;BME280_pressure;Samples;Min_cycle;Max_cycle;Signal;HPM_P1;HPM_P2
2024/03/10 00:01:01;;;;;;;;;;;;;;;7.83;73.92;93860.59;10517394;28;1950;-64
2024/03/10 00:06:03;;;;;;;;;;;;;;;7.89;74.92;93859.38;10509630;28;2045;-67
2024/03/10 00:11:06;;;;;;;;;;;;;;;7.90;73.40;93860.16;10513563;28;2123;-65
2024/03/10 00:16:09;;;;;;;;;;;;;;;8.01;73.04;93850.78;10520309;28;3026;-65
2024/03/10 00:21:11;;;;;;;;;;;;;;;8.24;69.71;93849.69;10519622;28;2071;-65
2024/03/10 00:26:15;;;;;;;;;;;;;;;8.30;68.12;93853.03;10517887;28;1974;-64
2024/03/10 00:31:19;;;;;;;;;;;;;;;8.46;65.91;93848.13;10520229;28;2228;-65
2024/03/10 00:36:21;;;;;;;;;;;;;;;8.55;65.01;93854.31;10514883;28;2254;-72
2024/03/10 00:41:24;;;;;;;;;;;;;;;8.70;62.16;93847.78;10522528;28;2169;-65
2024/03/10 00:46:28;;;;;;;;;;;;;;;8.87;60.44;93843.28;10520886;28;2134;-67
2024/03/10 00:51:30;;;;;;;;;;;;;;;8.91;60.25;93835.44;10518234;28;2074;-66
2024/03/10 00:56:33;;;;;;;;;;;;;;;8.94;58.85;93832.13;10512030;28;2502;-69
2024/03/10 01:01:36;;;;;;;;;;;;;;;8.82;59.42;93834.59;10520421;28;1932;-78
2024/03/10 01:06:39;;;;;;;;;;;;;;;8.85;59.83;93831.31;10519864;28;2128;-74
2024/03/10 01:11:42;;;;;;;;;;;;;;;8.88;58.14;93828.00;10521119;28;1922;-74
2024/03/10 01:16:46;;;;;;;;;;;;;;;8.83;59.16;93828.13;10520205;28;2031;-68
2024/03/10 01:21:49;;;;;;;;;;;;;;;8.77;58.87;93818.66;10516805;28;2048;-74
2024/03/10 01:26:51;;;;;;;;;;;;;;;8.70;59.87;93811.06;10516186;28;1945;-66
2024/03/10 01:31:55;;;;;;;;;;;;;;;8.75;60.33;93807.47;10520482;28;1953;-67
2024/03/10 01:36:58;;;;;;;;;;;;;;;8.65;61.04;93790.56;10515320;28;2548;-64
2024/03/10 01:42:01;;;;;;;;;;;;;;;8.66;61.77;93788.69;10513035;28;1950;-65
2024/03/10 01:47:04;;;;;;;;;;;;;;;8.68;60.43;93791.06;10520566;28;1894;-65
2024/03/10 01:52:06;;;;;;;;;;;;;;;8.65;61.07;93785.22;10512825;28;1975;-65
2024/03/10 01:57:09;;;;;;;;;;;;;;;8.73;61.19;93769.50;10521225;28;1963;-65
2024/03/10 02:02:12;;;;;;;;;;;;;;;8.65;61.34;93763.78;10512783;28;1906;-64
2024/03/10 02:07:16;;;;;;;;;;;;;;;8.67;61.31;93752.75;10517890;28;1978;-64
2024/03/10 02:12:18;;;;;;;;;;;;;;;8.69;61.54;93753.22;10520123;28;2007;-64
2024/03/10 02:17:21;;;;;;;;;;;;;;;8.66;61.53;93733.22;10523164;28;2101;-68
2024/03/10 02:22:24;;;;;;;;;;;;;;;8.59;61.84;93732.91;10512454;28;2389;-71
2024/03/10 02:27:28;;;;;;;;;;;;;;;8.43;63.59;93729.03;10512453;28;2287;-66
2024/03/10 02:48:34;;;;;;;;;;;;;;;8.23;68.08;93725.00;10513183;28;1905;-63
2024/03/10 02:53:38;;;;;;;;;;;;;;;8.10;69.06;93724.00;10524631;28;1927;-65
2024/03/10 02:58:40;;;;;;;;;;;;;;;8.03;69.89;93720.19;10520175;28;2211;-65
2024/03/10 03:03:43;;;;;;;;;;;;;;;7.96;72.27;93720.63;10530157;28;1893;-64
2024/03/10 03:08:45;;;;;;;;;;;;;;;7.90;74.24;93719.19;10511647;28;2599;-64
2024/03/10 03:13:48;;;;;;;;;;;;;;;7.78;76.22;93706.38;10512037;28;2012;-64
2024/03/10 03:18:51;;;;;;;;;;;;;;;7.59;83.40;93711.13;10517012;28;2103;-65
2024/03/10 03:23:54;;;;;;;;;;;;;;;7.67;81.61;93688.97;10512426;28;2197;-65
2024/03/10 03:28:58;;;;;;;;;;;;;;;7.79;78.67;93672.38;10517052;28;1851;-68
2024/03/10 03:34:01;;;;;;;;;;;;;;;7.77;81.94;93679.94;10513064;28;2003;-70
2024/03/10 03:39:05;;;;;;;;;;;;;;;7.80;78.40;93676.63;10518401;28;1974;-70
2024/03/10 03:44:08;;;;;;;;;;;;;;;7.92;77.82;93676.84;10526066;28;2055;-72
2024/03/10 03:49:10;;;;;;;;;;;;;;;7.97;77.14;93673.25;10527808;28;1919;-73
2024/03/10 03:54:13;;;;;;;;;;;;;;;8.03;75.76;93672.81;10524984;28;1913;-70
2024/03/10 03:59:15;;;;;;;;;;;;;;;7.90;78.21;93656.88;10527119;28;2025;-66
2024/03/10 04:04:18;;;;;;;;;;;;;;;7.80;80.05;93652.56;10526641;28;1962;-66
2024/03/10 04:09:20;;;;;;;;;;;;;;;7.46;86.91;93643.25;10524249;28;1986;-64
2024/03/10 04:14:23;;;;;;;;;;;;;;;7.29;91.82;93643.16;10520911;28;2683;-65
2024/03/10 04:19:26;;;;;;;;;;;;;;;7.14;99.86;93648.88;10521985;28;2003;-65
2024/03/10 04:24:28;;;;;;;;;;;;;;;6.97;99.72;93631.59;10518639;28;2133;-65
2024/03/10 04:29:31;;;;;;;;;;;;;;;7.01;100.00;93635.25;10520431;28;1883;-66
2024/03/10 04:34:34;;;;;;;;;;;;;;;6.93;100.00;93625.28;10511423;28;6227;-64
2024/03/10 04:39:37;;;;;;;;;;;;;;;7.04;100.00;93607.91;10525320;28;6031;-64
2024/03/10 04:44:40;;;;;;;;;;;;;;;6.86;100.00;93592.88;10521318;28;1915;-65
2024/03/10 04:49:43;;;;;;;;;;;;;;;6.67;100.00;93587.69;10521544;28;2200;-65
2024/03/10 04:54:46;;;;;;;;;;;;;;;6.52;100.00;93572.03;10521882;28;1967;-63
2024/03/10 04:59:49;;;;;;;;;;;;;;;6.63;100.00;93572.59;10521148;28;2025;-67
2024/03/10 05:04:51;;;;;;;;;;;;;;;6.66;100.00;93556.75;10523744;28;1982;-66
2024/03/10 05:09:54;;;;;;;;;;;;;;;7.01;99.56;93533.75;10520398;28;2213;-63
2024/03/10 05:14:57;;;;;;;;;;;;;;;6.96;99.56;93509.03;10514844;28;1928;-64
2024/03/10 05:20:00;;;;;;;;;;;;;;;6.94;100.00;93514.69;10511528;28;1863;-64
2024/03/10 05:25:03;;;;;;;;;;;;;;;6.83;100.00;93542.75;10520243;28;2224;-65
2024/03/10 05:30:06;;;;;;;;;;;;;;;6.81;100.00;93557.47;10520251;28;2026;-64
2024/03/10 05:35:09;;;;;;;;;;;;;;;6.65;100.00;93567.75;10515616;28;2982;-65
2024/03/10 05:40:12;;;;;;;;;;;;;;;6.54;100.00;93569.06;10519110;28;1979;-65
2024/03/10 05:45:15;;;;;;;;;;;;;;;6.62;100.00;93563.00;10521183;28;2067;-63
2024/03/10 05:50:19;;;;;;;;;;;;;;;6.49;100.00;93559.31;10526796;28;1899;-67
2024/03/10 05:55:21;;;;;;;;;;;;;;;6.63;100.00;93569.94;10521323;28;1956;-66
2024/03/10 06:00:24;;;;;;;;;;;;;;;6.58;100.00;93570.03;10511674;28;2062;-65
2024/03/10 06:05:27;;;;;;;;;;;;;;;6.58;100.00;93565.50;10518862;28;2092;-65
2024/03/10 06:10:30;;;;;;;;;;;;;;;6.82;100.00;93575.09;10516239;28;1875;-67
2024/03/10 06:15:33;;;;;;;;;;;;;;;6.99;100.00;93572.53;10514762;28;2128;-64
2024/03/10 06:25:55;;;;;;;;;;;;;;;7.06;100.00;93567.53;10517641;28;1959;-66
2024/03/10 06:30:58;;;;;;;;;;;;;;;7.16;100.00;93575.31;10517212;28;2866;-66
2024/03/10 06:36:03;;;;;;;;;;;;;;;7.44;100.00;93559.91;10517862;28;2132;-65
2024/03/10 06:41:06;;;;;;;;;;;;;;;7.53;100.00;93551.94;10511394;28;2065;-65
2024/03/10 06:46:09;;;;;;;;;;;;;;;7.58;100.00;93549.91;10503896;28;1942;-65
2024/03/10 06:51:13;;;;;;;;;;;;;;;7.58;100.00;93565.94;10512597;28;2110;-67
2024/03/10 06:56:16;;;;;;;;;;;;;;;7.70;100.00;93572.59;10515024;28;1966;-66
2024/03/10 07:01:21;;;;;;;;;;;;;;;7.68;100.00;93569.44;10520176;28;1882;-68
2024/03/10 07:06:26;;;;;;;;;;;;;;;7.69;100.00;93549.63;10520103;28;1851;-73
2024/03/10 07:11:29;;;;;;;;;;;;;;;7.90;100.00;93563.25;10515807;28;2279;-72
2024/03/10 07:16:32;;;;;;;;;;;;;;;7.87;100.00;93540.56;10516594;28;1950;-68
2024/03/10 07:21:35;;;;;;;;;;;;;;;7.89;100.00;93553.63;10519572;28;1995;-70
2024/03/10 07:26:37;;;;;;;;;;;;;;;7.81;100.00;93541.78;10517690;28;2168;-71
2024/03/10 07:31:40;;;;;;;;;;;;;;;7.80;100.00;93537.53;10518383;28;2018;-69
2024/03/10 07:36:43;;;;;;;;;;;;;;;7.75;100.00;93522.44;10521358;28;1977;-66
2024/03/10 07:41:45;;;;;;;;;;;;;;;7.77;100.00;93514.91;10520234;28;1938;-67
2024/03/10 07:46:48;;;;;;;;;;;;;;;7.74;100.00;93509.38;10514025;28;2075;-65
2024/03/10 07:51:51;;;;;;;;;;;;;;;7.83;100.00;93494.16;10508947;28;1990;-68
2024/03/10 07:56:54;;;;;;;;;;;;;;;8.04;100.00;93505.81;10517165;28;1987;-68
2024/03/10 08:01:57;;;;;;;;;;;;;;;8.37;100.00;93500.06;10516521;28;1949;-64
2024/03/10 08:07:02;;;;;;;;;;;;;;;8.82;100.00;93492.47;10516028;28;2059;-66
2024/03/10 08:12:04;;;;;;;;;;;;;;;9.38;100.00;93484.44;10515162;28;2189;-65
2024/03/10 08:17:07;;;;;;;;;;;;;;;9.76;100.00;93500.53;10519976;28;1989;-65
2024/03/10 08:22:10;;;;;;;;;;;;;;;9.98;100.00;93507.50;10517326;28;2021;-64
2024/03/10 08:27:13;;;;;;;;;;;;;;;10.07;100.00;93508.25;10506173;28;1886;-66
2024/03/10 08:32:15;;;;;;;;;;;;;;;9.96;100.00;93504.38;10518190;28;2158;-67
2024/03/10 08:37:18;;;;;;;;;;;;;;;10.11;100.00;93506.47;10519568;28;2106;-66
2024/03/10 08:42:24;;;;;;;;;;;;;;;10.71;100.00;93501.81;10516713;28;1934;-66
2024/03/10 08:47:26;;;;;;;;;;;;;;;11.11;100.00;93494.00;10521073;28;1954;-66
2024/03/10 08:52:29;;;;;;;;;;;;;;;11.30;100.00;93472.75;10520188;28;2039;-66
2024/03/10 08:57:32;;;;;;;;;;;;;;;11.80;100.00;93470.91;10521686;28;2051;-67
2024/03/10 09:02:35;;;;;;;;;;;;;;;11.93;100.00;93469.03;10524256;28;2572;-65
2024/03/10 09:07:37;;;;;;;;;;;;;;;12.09;100.00;93462.63;10520589;28;1906;-66
2024/03/10 09:12:40;;;;;;;;;;;;;;;12.22;100.00;93460.69;10520239;28;2152;-66
2024/03/10 09:17:44;;;;;;;;;;;;;;;12.24;100.00;93442.28;10528138;28;1949;-66
2024/03/10 09:22:48;;;;;;;;;;;;;;;12.23;100.00;93435.31;10518301;28;2032;-65
2024/03/10 09:27:56;;;;;;;;;;;;;;;12.74;100.00;93426.72;10513187;28;1884;-66
2024/03/10 09:32:59;;;;;;;;;;;;;;;12.51;100.00;93418.41;10516367;28;2007;-66
2024/03/10 09:38:04;;;;;;;;;;;;;;;12.64;100.00;93422.59;10516181;28;2168;-65
2024/03/10 09:43:11;;;;;;;;;;;;;;;12.80;100.00;93420.75;10519590;28;2378;-66
2024/03/10 09:48:15;;;;;;;;;;;;;;;12.81;100.00;93416.91;10530040;27;2058;-66
2024/03/10 09:53:18;;;;;;;;;;;;;;;12.80;100.00;93426.16;10518608;28;1986;-66
2024/03/10 09:58:21;;;;;;;;;;;;;;;12.98;98.36;93432.78;10519978;28;2412;-66
2024/03/10 10:03:38;;;;;;;;;;;;;;;13.11;94.30;93441.59;10521170;28;2014;-66
2024/03/10 10:08:40;;;;;;;;;;;;;;;13.39;93.86;93430.78;10519283;28;2054;-67
2024/03/10 10:13:43;;;;;;;;;;;;;;;13.63;87.05;93426.34;10516903;28;1913;-66
2024/03/10 10:18:47;;;;;;;;;;;;;;;13.88;80.08;93416.91;10520522;28;2212;-65
2024/03/10 10:24:01;;;;;;;;;;;;;;;13.94;72.53;93422.81;10518411;28;2104;-68
2024/03/10 10:29:06;;;;;;;;;;;;;;;14.14;63.16;93423.66;10517147;28;2016;-67
2024/03/10 10:34:12;;;;;;;;;;;;;;;13.76;83.51;93419.69;10521109;28;2001;-73
2024/03/10 10:39:17;;;;;;;;;;;;;;;14.20;85.17;93411.44;10516171;28;1993;-72
2024/03/10 10:44:20;;;;;;;;;;;;;;;14.02;87.80;93409.13;10516437;28;2279;-70
2024/03/10 10:49:22;;;;;;;;;;;;;;;13.95;94.01;93403.56;10511650;28;1989;-70
2024/03/10 10:54:25;;;;;;;;;;;;;;;13.59;100.00;93390.38;10516294;28;2977;-74
2024/03/10 10:59:28;;;;;;;;;;;;;;;14.17;90.40;93385.09;10523858;28;1878;-69
2024/03/10 11:04:30;;;;;;;;;;;;;;;13.72;100.00;93389.13;10515874;28;1964;-69
2024/03/10 11:09:33;;;;;;;;;;;;;;;13.94;100.00;93374.22;10518844;28;2046;-69
2024/03/10 11:14:36;;;;;;;;;;;;;;;14.40;98.89;93380.56;10521296;28;2028;-74
2024/03/10 11:19:40;;;;;;;;;;;;;;;14.36;93.67;93368.13;10519800;28;1844;-74
2024/03/10 11:24:45;;;;;;;;;;;;;;;14.92;82.68;93370.38;10519839;28;2000;-66
2024/03/10 11:29:48;;;;;;;;;;;;;;;15.36;81.26;93365.34;10510846;28;1965;-67
2024/03/10 11:34:51;;;;;;;;;;;;;;;15.61;83.33;93355.69;10517698;28;1989;-65
2024/03/10 11:39:53;;;;;;;;;;;;;;;14.99;88.97;93348.88;10524243;28;2014;-65
2024/03/10 11:44:56;;;;;;;;;;;;;;;14.67;91.78;93340.19;10524453;28;2126;-67
2024/03/10 11:49:59;;;;;;;;;;;;;;;14.85;90.86;93331.25;10510969;28;2332;-68
2024/03/10 11:55:10;;;;;;;;;;;;;;;15.31;86.36;93309.59;10517200;28;1981;-67
2024/03/10 12:00:16;;;;;;;;;;;;;;;15.99;80.31;93307.91;10520026;28;2190;-73
2024/03/10 12:05:19;;;;;;;;;;;;;;;16.77;73.63;93315.41;10518602;28;2068;-66
2024/03/10 12:10:22;;;;;;;;;;;;;;;16.48;71.65;93321.28;10528289;28;2295;-69
2024/03/10 12:15:24;;;;;;;;;;;;;;;16.58;65.87;93314.41;10522675;28;2040;-67
2024/03/10 12:20:27;;;;;;;;;;;;;;;16.93;63.16;93321.41;10525928;28;1955;-66
2024/03/10 12:25:30;;;;;;;;;;;;;;;17.55;49.78;93318.81;10518675;28;1899;-66
2024/03/10 12:30:34;;;;;;;;;;;;;;;17.74;43.73;93309.66;10523072;28;2555;-65
2024/03/10 12:35:37;;;;;;;;;;;;;;;17.68;42.78;93298.31;10523138;28;2194;-65
2024/03/10 12:40:41;;;;;;;;;;;;;;;17.94;41.11;93288.41;10519816;28;1852;-66
2024/03/10 12:45:43;;;;;;;;;;;;;;;17.66;41.43;93291.72;10527179;28;2076;-65
2024/03/10 12:50:46;;;;;;;;;;;;;;;17.78;40.62;93280.56;10518418;28;2095;-65
2024/03/10 12:55:49;;;;;;;;;;;;;;;17.89;40.52;93275.22;10519479;28;2005;-65
2024/03/10 13:00:52;;;;;;;;;;;;;;;18.09;40.02;93257.44;10520968;28;2027;-65
2024/03/10 13:05:55;;;;;;;;;;;;;;;17.81;40.76;93253.44;10517502;28;1992;-65
2024/03/10 13:10:59;;;;;;;;;;;;;;;17.92;40.53;93237.16;10523452;28;2444;-65
2024/03/10 13:16:02;;;;;;;;;;;;;;;18.52;39.29;93219.53;10523825;28;1991;-65
2024/03/10 13:21:05;;;;;;;;;;;;;;;18.49;37.70;93223.78;10522499;28;1910;-68
2024/03/10 13:26:08;;;;;;;;;;;;;;;18.55;37.60;93210.56;10521583;28;2029;-67
2024/03/10 13:31:11;;;;;;;;;;;;;;;18.50;37.86;93216.38;10510961;28;2093;-65
2024/03/10 13:36:14;;;;;;;;;;;;;;;18.48;37.43;93202.41;10518730;28;1968;-65
2024/03/10 13:41:21;;;;;;;;;;;;;;;18.36;37.62;93193.44;10518551;28;2051;-66
2024/03/10 13:46:23;;;;;;;;;;;;;;;18.36;37.39;93192.66;10512897;28;2138;-66
2024/03/10 13:51:26;;;;;;;;;;;;;;;18.53;36.35;93172.88;10523245;28;2134;-66
2024/03/10 13:56:30;;;;;;;;;;;;;;;18.67;35.50;93160.50;10518659;28;2033;-66
2024/03/10 14:01:33;;;;;;;;;;;;;;;18.70;34.71;93157.75;10523131;28;2472;-66
2024/03/10 14:06:37;;;;;;;;;;;;;;;18.57;34.93;93140.22;10519226;28;1966;-65
2024/03/10 14:11:40;;;;;;;;;;;;;;;18.48;36.04;93139.84;10516420;28;1981;-66
2024/03/10 14:16:43;;;;;;;;;;;;;;;18.44;34.95;93137.09;10516727;28;1909;-66
2024/03/10 14:21:46;;;;;;;;;;;;;;;18.34;35.22;93141.38;10517730;28;2009;-69
2024/03/10 14:26:48;;;;;;;;;;;;;;;18.12;35.31;93131.63;10515078;28;1913;-66
2024/03/10 14:31:51;;;;;;;;;;;;;;;18.06;36.32;93130.44;10516299;28;2230;-66
2024/03/10 14:36:54;;;;;;;;;;;;;;;18.05;37.82;93118.78;10519742;28;2056;-67
2024/03/10 14:41:57;;;;;;;;;;;;;;;18.05;38.26;93115.28;10514537;28;2582;-66
2024/03/10 14:47:00;;;;;;;;;;;;;;;17.93;39.02;93112.94;10515267;28;2182;-67
2024/03/10 14:52:04;;;;;;;;;;;;;;;17.87;39.57;93122.63;10517097;28;2047;-71
2024/03/10 14:57:07;;;;;;;;;;;;;;;17.77;40.57;93111.34;10513220;28;2014;-69
2024/03/10 15:02:11;;;;;;;;;;;;;;;17.57;42.01;93123.66;10520430;28;2031;-69
2024/03/10 15:07:15;;;;;;;;;;;;;;;17.42;42.00;93122.03;10515888;28;2216;-67
2024/03/10 15:12:20;;;;;;;;;;;;;;;17.30;43.29;93125.84;10513251;28;2036;-67
2024/03/10 15:17:26;;;;;;;;;;;;;;;17.23;44.21;93131.22;10520197;28;2019;-66
2024/03/10 15:22:29;;;;;;;;;;;;;;;17.17;45.09;93138.94;10521547;28;2509;-68
2024/03/10 15:27:33;;;;;;;;;;;;;;;17.08;46.11;93137.75;10515251;28;2216;-64
2024/03/10 15:32:36;;;;;;;;;;;;;;;17.07;47.19;93149.75;10511661;28;2099;-66
2024/03/10 15:37:40;;;;;;;;;;;;;;;17.03;48.98;93138.88;10514577;28;2047;-67
2024/03/10 15:42:46;;;;;;;;;;;;;;;16.77;51.83;93147.22;10521242;28;1970;-67
2024/03/10 15:47:54;;;;;;;;;;;;;;;16.53;52.36;93135.75;10528863;28;2106;-67
2024/03/10 15:53:03;;;;;;;;;;;;;;;16.34;52.43;93131.34;10525278;28;2186;-66
2024/03/10 15:58:07;;;;;;;;;;;;;;;16.16;55.33;93133.91;10523453;28;1983;-68
2024/03/10 16:03:13;;;;;;;;;;;;;;;15.95;58.17;93149.91;10527272;28;2200;-66
2024/03/10 16:08:15;;;;;;;;;;;;;;;15.76;63.97;93141.97;10524840;28;2582;-66
2024/03/10 16:13:18;;;;;;;;;;;;;;;15.54;71.09;93162.59;10521524;28;2048;-68
2024/03/10 16:18:22;;;;;;;;;;;;;;;15.39;75.43;93156.19;10521386;28;2170;-69
2024/03/10 16:23:27;;;;;;;;;;;;;;;15.30;78.32;93151.06;10520456;28;1986;-70
2024/03/10 16:28:30;;;;;;;;;;;;;;;15.18;79.15;93164.81;10524886;28;2094;-69
2024/03/10 16:33:33;;;;;;;;;;;;;;;15.07;81.32;93169.28;10517969;28;2054;-71
2024/03/10 16:38:36;;;;;;;;;;;;;;;14.90;86.67;93157.06;10515275;28;2079;-70
2024/03/10 16:43:39;;;;;;;;;;;;;;;14.68;93.08;93157.88;10528068;28;1960;-66
2024/03/10 16:48:43;;;;;;;;;;;;;;;14.52;95.93;93175.03;10524952;28;2048;-73
2024/03/10 16:53:45;;;;;;;;;;;;;;;14.38;98.46;93182.88;10520431;28;2677;-66
2024/03/10 16:58:50;;;;;;;;;;;;;;;14.23;100.00;93197.25;10520899;28;2323;-64
2024/03/10 17:03:53;;;;;;;;;;;;;;;14.03;100.00;93212.72;10524770;28;1975;-66
2024/03/10 17:08:57;;;;;;;;;;;;;;;13.92;100.00;93226.00;10525149;28;2233;-65
2024/03/10 17:13:59;;;;;;;;;;;;;;;13.82;100.00;93274.41;10520151;28;2142;-66
2024/03/10 17:19:03;;;;;;;;;;;;;;;13.63;100.00;93310.25;10538417;27;1959;-67
2024/03/10 17:24:06;;;;;;;;;;;;;;;13.20;100.00;93328.13;10519308;28;2130;-67
2024/03/10 17:29:13;;;;;;;;;;;;;;;12.88;100.00;93338.91;10520440;28;2305;-66
2024/03/10 17:34:20;;;;;;;;;;;;;;;12.58;100.00;93353.91;10517121;28;2551;-65
2024/03/10 17:39:29;;;;;;;;;;;;;;;11.98;100.00;93399.59;10521413;28;2182;-69
2024/03/10 17:44:34;;;;;;;;;;;;;;;11.63;100.00;93407.31;10513616;28;1891;-65
2024/03/10 17:49:37;;;;;;;;;;;;;;;11.30;100.00;93427.03;10514425;28;2004;-65
2024/03/10 17:54:43;;;;;;;;;;;;;;;11.10;100.00;93438.66;10524251;28;2021;-66
2024/03/10 17:59:45;;;;;;;;;;;;;;;10.93;100.00;93460.34;10518321;28;1989;-65
2024/03/10 18:04:48;;;;;;;;;;;;;;;10.71;100.00;93496.44;10521808;28;1925;-65
2024/03/10 18:09:52;;;;;;;;;;;;;;;10.64;100.00;93515.00;10518655;28;1941;-65
2024/03/10 18:14:56;;;;;;;;;;;;;;;10.61;100.00;93545.97;10515929;28;2030;-67
2024/03/10 18:20:02;;;;;;;;;;;;;;;10.52;100.00;93558.69;10514352;28;2878;-68
2024/03/10 18:25:05;;;;;;;;;;;;;;;10.27;100.00;93558.53;10518001;28;1869;-66
2024/03/10 18:30:11;;;;;;;;;;;;;;;10.08;100.00;93582.28;10518455;28;2063;-64
2024/03/10 18:35:16;;;;;;;;;;;;;;;9.98;100.00;93598.75;10511281;28;2213;-66
2024/03/10 18:40:22;;;;;;;;;;;;;;;9.96;100.00;93579.50;10512152;28;2150;-66
2024/03/10 18:45:27;;;;;;;;;;;;;;;9.53;100.00;93591.19;10516679;28;1935;-67
2024/03/10 18:50:30;;;;;;;;;;;;;;;8.98;100.00;93618.72;10519053;28;2076;-66
2024/03/10 18:55:33;;;;;;;;;;;;;;;8.53;100.00;93637.72;10517296;28;2110;-65
2024/03/10 19:00:37;;;;;;;;;;;;;;;8.40;100.00;93646.69;10511359;28;1866;-66
2024/03/10 19:05:42;;;;;;;;;;;;;;;8.33;100.00;93630.22;10514435;28;2007;-67
2024/03/10 19:10:44;;;;;;;;;;;;;;;8.13;100.00;93599.47;10521533;28;2244;-70
2024/03/10 19:15:47;;;;;;;;;;;;;;;8.01;100.00;93573.31;10525016;28;1910;-64
2024/03/10 19:20:50;;;;;;;;;;;;;;;8.00;100.00;93609.22;10516121;28;1853;-65
2024/03/10 19:25:57;;;;;;;;;;;;;;;8.06;100.00;93639.28;10506017;28;2852;-66
2024/03/10 19:31:04;;;;;;;;;;;;;;;7.89;100.00;93656.06;10507638;28;2772;-65
2024/03/10 19:36:08;;;;;;;;;;;;;;;7.82;100.00;93645.00;10504003;28;2783;-65
2024/03/10 19:41:11;;;;;;;;;;;;;;;7.63;100.00;93633.75;10509049;28;2952;-66
2024/03/10 19:46:14;;;;;;;;;;;;;;;7.57;100.00;93659.81;10506007;28;2879;-65
2024/03/10 19:51:17;;;;;;;;;;;;;;;7.52;100.00;93684.81;10505903;28;2808;-65
2024/03/10 19:56:19;;;;;;;;;;;;;;;7.47;100.00;93709.00;10506977;28;2924;-66
2024/03/10 20:01:23;;;;;;;;;;;;;;;7.46;100.00;93714.66;10513602;28;2258;-66
2024/03/10 20:06:25;;;;;;;;;;;;;;;7.46;100.00;93728.81;10512004;28;2234;-68
2024/03/10 20:11:28;;;;;;;;;;;;;;;7.43;100.00;93734.75;10519863;28;1853;-64
2024/03/10 20:16:31;;;;;;;;;;;;;;;7.39;100.00;93744.47;10523055;28;2277;-64
2024/03/10 20:21:34;;;;;;;;;;;;;;;7.30;100.00;93756.97;10525366;28;1896;-68
2024/03/10 20:26:37;;;;;;;;;;;;;;;7.24;100.00;93768.84;10521179;28;1852;-74
2024/03/10 20:31:42;;;;;;;;;;;;;;;7.17;100.00;93771.16;10526867;28;1570;-71
2024/03/10 20:36:45;;;;;;;;;;;;;;;7.09;100.00;93803.94;10521585;28;1938;-69
2024/03/10 20:41:48;;;;;;;;;;;;;;;6.99;100.00;93816.41;10519930;28;1848;-65
2024/03/10 20:46:51;;;;;;;;;;;;;;;6.97;100.00;93855.97;10516119;28;1903;-67
2024/03/10 20:51:54;;;;;;;;;;;;;;;6.90;100.00;93860.13;10523737;28;2368;-65
2024/03/10 20:56:56;;;;;;;;;;;;;;;6.94;100.00;93871.81;10528424;28;2380;-66
2024/03/10 21:02:00;;;;;;;;;;;;;;;6.93;100.00;93884.34;10526691;28;1955;-66
2024/03/10 21:07:03;;;;;;;;;;;;;;;6.91;100.00;93896.44;10528348;28;1756;-66
2024/03/10 21:12:07;;;;;;;;;;;;;;;6.88;100.00;93919.19;10529762;28;1951;-69
2024/03/10 21:17:10;;;;;;;;;;;;;;;6.92;100.00;93932.75;10528558;28;1914;-64
2024/03/10 21:22:16;;;;;;;;;;;;;;;6.78;100.00;93946.06;10522119;28;1771;-66
2024/03/10 21:27:19;;;;;;;;;;;;;;;6.69;100.00;93955.88;10518263;28;2287;-65
2024/03/10 21:32:22;;;;;;;;;;;;;;;6.67;100.00;93976.69;10529695;28;1941;-71
2024/03/10 21:37:25;;;;;;;;;;;;;;;6.64;100.00;93975.41;10523869;28;1907;-64
2024/03/10 21:42:28;;;;;;;;;;;;;;;6.63;100.00;93957.81;10518184;28;2092;-70
2024/03/10 21:47:30;;;;;;;;;;;;;;;6.50;100.00;93958.56;10520917;28;2326;-68
2024/03/10 21:52:33;;;;;;;;;;;;;;;6.38;100.00;93977.72;10527267;28;1862;-70
2024/03/10 21:57:35;;;;;;;;;;;;;;;6.20;100.00;93999.88;10520554;28;1922;-70
2024/03/10 22:02:38;;;;;;;;;;;;;;;6.05;100.00;94016.88;10528441;28;1965;-66
2024/03/10 22:07:41;;;;;;;;;;;;;;;6.07;100.00;94035.25;10524743;28;1961;-70
2024/03/10 22:12:43;;;;;;;;;;;;;;;6.28;100.00;94025.88;10520250;28;1806;-70
2024/03/10 22:17:46;;;;;;;;;;;;;;;6.49;100.00;94043.19;10525837;28;2044;-69
2024/03/10 22:22:50;;;;;;;;;;;;;;;6.65;100.00;94050.97;10521818;28;1950;-70
2024/03/10 22:27:53;;;;;;;;;;;;;;;6.62;100.00;94051.56;10517770;28;1905;-70
2024/03/10 22:32:56;;;;;;;;;;;;;;;6.56;100.00;94053.50;10522274;28;1633;-69
2024/03/10 22:38:00;;;;;;;;;;;;;;;6.75;100.00;94058.84;10516302;28;1967;-69
2024/03/10 22:43:04;;;;;;;;;;;;;;;6.76;100.00;94041.72;10525138;28;2463;-68
2024/03/10 22:48:07;;;;;;;;;;;;;;;6.63;100.00;94058.50;10521008;28;1637;-68
2024/03/10 22:53:11;;;;;;;;;;;;;;;6.57;100.00;94065.78;10517398;28;1933;-70
2024/03/10 22:58:13;;;;;;;;;;;;;;;6.60;100.00;94059.06;10517838;28;1951;-68
2024/03/10 23:03:16;;;;;;;;;;;;;;;6.36;100.00;94075.13;10523074;28;1864;-70
2024/03/10 23:08:19;;;;;;;;;;;;;;;6.25;100.00;94085.19;10515416;28;1766;-70
2024/03/10 23:13:22;;;;;;;;;;;;;;;6.11;100.00;94082.44;10532171;28;1862;-70
2024/03/10 23:18:25;;;;;;;;;;;;;;;6.00;100.00;94098.84;10518671;28;1973;-70
2024/03/10 23:23:28;;;;;;;;;;;;;;;6.07;100.00;94088.59;10524220;28;2316;-69
2024/03/10 23:28:31;;;;;;;;;;;;;;;6.06;100.00;94103.03;10519857;28;2130;-69
2024/03/10 23:33:34;;;;;;;;;;;;;;;6.14;100.00;94097.06;10516809;28;1947;-69
2024/03/10 23:38:36;;;;;;;;;;;;;;;6.00;100.00;94106.84;10516213;28;1917;-70
2024/03/10 23:43:39;;;;;;;;;;;;;;;5.86;100.00;94115.50;10513626;28;2930;-69
2024/03/10 23:48:42;;;;;;;;;;;;;;;5.89;100.00;94120.25;10505957;28;2903;-69
2024/03/10 23:53:45;;;;;;;;;;;;;;;5.77;100.00;94119.84;10502466;28;2874;-69
2024/03/10 23:58:48;;;;;;;;;;;;;;;5.72;100.00;94114.56;10510523;28;2835;-70
